Terminal Aerodrome Forecast
Issued by NWS

Current Version | Previous Version | Text Only | Print | Product List | Glossary Off
Versions: 1 2 3 4 5 6 7 8 9 10 11 12 13 14 15 16 17 18 19 20 21 22

000
FTUS41 KILN 261735
TAFLUK
TAF
KLUK 261735Z 2618/2718 23006KT P6SM VCTS BKN040CB
      TEMPO 2618/2620 VRB15G21KT 1 1/2SM TSRA BKN035CB
     FM262300 VRB04KT P6SM SCT040 BKN150
     FM270800 VRB03KT 2SM BR BKN150
     FM271200 VRB03KT P6SM BKN150=

USA.gov is the U.S. government's official web portal to all federal, state and local government web resources and services.